sensor_id;sensor_type;location;lat;lon;timestamp;temperature;humidity
4677;DHT22;2352;48.180;11.478;2022-11-20T00:00:44;9.00;96.70
4677;DHT22;2352;48.180;11.478;2022-11-20T00:03:47;9.00;96.60
4677;DHT22;2352;48.180;11.478;2022-11-20T00:06:50;9.00;97.00
4677;DHT22;2352;48.180;11.478;2022-11-20T00:09:53;9.00;96.70
4677;DHT22;2352;48.180;11.478;2022-11-20T00:12:57;9.00;96.60
4677;DHT22;2352;48.180;11.478;2022-11-20T00:16:02;9.00;96.70
4677;DHT22;2352;48.180;11.478;2022-11-20T00:19:05;9.00;96.70
4677;DHT22;2352;48.180;11.478;2022-11-20T00:22:08;8.90;96.90
4677;DHT22;2352;48.180;11.478;2022-11-20T00:25:11;8.90;96.80
4677;DHT22;2352;48.180;11.478;2022-11-20T00:28:15;9.00;97.00
4677;DHT22;2352;48.180;11.478;2022-11-20T00:31:19;9.00;97.10
4677;DHT22;2352;48.180;11.478;2022-11-20T00:34:22;9.10;96.80
4677;DHT22;2352;48.180;11.478;2022-11-20T00:37:25;9.10;96.60
4677;DHT22;2352;48.180;11.478;2022-11-20T00:40:27;9.10;96.60
4677;DHT22;2352;48.180;11.478;2022-11-20T00:43:32;9.10;96.50
4677;DHT22;2352;48.180;11.478;2022-11-20T00:46:35;9.00;96.60
4677;DHT22;2352;48.180;11.478;2022-11-20T00:49:38;9.00;96.50
4677;DHT22;2352;48.180;11.478;2022-11-20T00:52:41;9.00;96.70
4677;DHT22;2352;48.180;11.478;2022-11-20T00:55:53;9.00;96.60
4677;DHT22;2352;48.180;11.478;2022-11-20T00:58:59;9.00;96.50
4677;DHT22;2352;48.180;11.478;2022-11-20T01:02:02;9.00;96.50
4677;DHT22;2352;48.180;11.478;2022-11-20T01:05:06;9.00;96.50
4677;DHT22;2352;48.180;11.478;2022-11-20T01:08:09;9.00;96.50
4677;DHT22;2352;48.180;11.478;2022-11-20T01:11:14;8.90;96.40
4677;DHT22;2352;48.180;11.478;2022-11-20T01:14:19;9.00;96.40
4677;DHT22;2352;48.180;11.478;2022-11-20T01:17:22;9.00;96.30
4677;DHT22;2352;48.180;11.478;2022-11-20T01:20:25;8.90;96.30
4677;DHT22;2352;48.180;11.478;2022-11-20T01:23:31;8.90;96.30
4677;DHT22;2352;48.180;11.478;2022-11-20T01:26:35;8.90;96.40
4677;DHT22;2352;48.180;11.478;2022-11-20T01:29:40;8.90;97.00
4677;DHT22;2352;48.180;11.478;2022-11-20T01:32:43;8.90;96.30
4677;DHT22;2352;48.180;11.478;2022-11-20T01:35:46;8.90;96.40
4677;DHT22;2352;48.180;11.478;2022-11-20T01:38:51;8.80;96.70
4677;DHT22;2352;48.180;11.478;2022-11-20T01:41:55;8.80;96.80
4677;DHT22;2352;48.180;11.478;2022-11-20T01:45:58;8.80;96.80
4677;DHT22;2352;48.180;11.478;2022-11-20T01:49:04;8.80;96.40
4677;DHT22;2352;48.180;11.478;2022-11-20T01:52:13;8.90;96.40
4677;DHT22;2352;48.180;11.478;2022-11-20T01:55:19;8.80;96.50
4677;DHT22;2352;48.180;11.478;2022-11-20T01:58:28;8.80;96.40
4677;DHT22;2352;48.180;11.478;2022-11-20T02:01:34;8.70;96.30
4677;DHT22;2352;48.180;11.478;2022-11-20T02:04:37;8.70;96.60
4677;DHT22;2352;48.180;11.478;2022-11-20T02:07:40;8.70;96.60
4677;DHT22;2352;48.180;11.478;2022-11-20T02:10:43;8.80;96.60
4677;DHT22;2352;48.180;11.478;2022-11-20T02:13:47;8.80;96.40
4677;DHT22;2352;48.180;11.478;2022-11-20T02:16:52;8.70;96.50
4677;DHT22;2352;48.180;11.478;2022-11-20T02:19:56;8.70;96.50
4677;DHT22;2352;48.180;11.478;2022-11-20T02:23:02;8.70;96.50
4677;DHT22;2352;48.180;11.478;2022-11-20T02:26:11;8.80;96.40
4677;DHT22;2352;48.180;11.478;2022-11-20T02:29:19;8.80;96.30
4677;DHT22;2352;48.180;11.478;2022-11-20T02:32:27;8.80;96.40
4677;DHT22;2352;48.180;11.478;2022-11-20T02:35:42;8.70;96.30
4677;DHT22;2352;48.180;11.478;2022-11-20T02:38:45;8.60;96.20
4677;DHT22;2352;48.180;11.478;2022-11-20T02:41:49;8.60;96.60
4677;DHT22;2352;48.180;11.478;2022-11-20T02:44:52;8.70;96.50
4677;DHT22;2352;48.180;11.478;2022-11-20T02:47:55;8.70;96.40
4677;DHT22;2352;48.180;11.478;2022-11-20T02:50:58;8.80;96.40
4677;DHT22;2352;48.180;11.478;2022-11-20T02:54:01;8.80;96.30
4677;DHT22;2352;48.180;11.478;2022-11-20T02:57:05;8.80;96.50
4677;DHT22;2352;48.180;11.478;2022-11-20T03:00:09;8.80;96.40
4677;DHT22;2352;48.180;11.478;2022-11-20T03:03:12;8.70;96.10
4677;DHT22;2352;48.180;11.478;2022-11-20T03:06:16;8.80;95.90
4677;DHT22;2352;48.180;11.478;2022-11-20T03:09:18;8.70;95.70
4677;DHT22;2352;48.180;11.478;2022-11-20T03:12:23;8.70;95.90
4677;DHT22;2352;48.180;11.478;2022-11-20T03:15:26;8.70;96.00
4677;DHT22;2352;48.180;11.478;2022-11-20T03:18:29;8.70;95.90
4677;DHT22;2352;48.180;11.478;2022-11-20T03:21:33;8.70;95.80
4677;DHT22;2352;48.180;11.478;2022-11-20T03:24:36;8.70;95.60
4677;DHT22;2352;48.180;11.478;2022-11-20T03:27:40;8.80;95.60
4677;DHT22;2352;48.180;11.478;2022-11-20T03:30:43;8.80;95.40
4677;DHT22;2352;48.180;11.478;2022-11-20T03:33:46;8.70;95.30
4677;DHT22;2352;48.180;11.478;2022-11-20T03:36:49;8.70;95.20
4677;DHT22;2352;48.180;11.478;2022-11-20T03:39:52;8.70;95.30
4677;DHT22;2352;48.180;11.478;2022-11-20T03:42:56;8.70;95.20
4677;DHT22;2352;48.180;11.478;2022-11-20T03:45:59;8.60;95.40
4677;DHT22;2352;48.180;11.478;2022-11-20T03:49:03;8.60;95.40
4677;DHT22;2352;48.180;11.478;2022-11-20T03:52:06;8.70;95.30
4677;DHT22;2352;48.180;11.478;2022-11-20T03:55:09;8.60;95.30
4677;DHT22;2352;48.180;11.478;2022-11-20T03:58:13;8.60;95.20
4677;DHT22;2352;48.180;11.478;2022-11-20T04:01:17;8.60;95.00
4677;DHT22;2352;48.180;11.478;2022-11-20T04:04:21;8.60;95.30
4677;DHT22;2352;48.180;11.478;2022-11-20T04:07:24;8.60;95.20
4677;DHT22;2352;48.180;11.478;2022-11-20T04:10:27;8.60;95.20
4677;DHT22;2352;48.180;11.478;2022-11-20T04:13:31;8.50;95.20
4677;DHT22;2352;48.180;11.478;2022-11-20T04:16:35;8.50;95.20
4677;DHT22;2352;48.180;11.478;2022-11-20T04:19:38;8.50;95.30
4677;DHT22;2352;48.180;11.478;2022-11-20T04:22:41;8.50;95.20
4677;DHT22;2352;48.180;11.478;2022-11-20T04:25:44;8.60;95.30
4677;DHT22;2352;48.180;11.478;2022-11-20T04:28:49;8.60;95.10
4677;DHT22;2352;48.180;11.478;2022-11-20T04:31:51;8.60;95.00
4677;DHT22;2352;48.180;11.478;2022-11-20T04:34:54;8.70;95.10
4677;DHT22;2352;48.180;11.478;2022-11-20T04:37:57;8.60;95.10
4677;DHT22;2352;48.180;11.478;2022-11-20T04:41:01;8.60;95.10
4677;DHT22;2352;48.180;11.478;2022-11-20T04:44:06;8.60;95.10
4677;DHT22;2352;48.180;11.478;2022-11-20T04:47:09;8.50;95.20
4677;DHT22;2352;48.180;11.478;2022-11-20T04:50:12;8.40;95.40
4677;DHT22;2352;48.180;11.478;2022-11-20T04:53:15;8.40;95.40
4677;DHT22;2352;48.180;11.478;2022-11-20T04:56:18;8.50;95.40
4677;DHT22;2352;48.180;11.478;2022-11-20T04:59:22;8.50;95.50
4677;DHT22;2352;48.180;11.478;2022-11-20T05:02:26;8.50;95.40
4677;DHT22;2352;48.180;11.478;2022-11-20T05:05:29;8.50;95.30
4677;DHT22;2352;48.180;11.478;2022-11-20T05:08:32;8.50;95.50
4677;DHT22;2352;48.180;11.478;2022-11-20T05:11:35;8.60;95.10
4677;DHT22;2352;48.180;11.478;2022-11-20T05:14:40;8.60;95.00
4677;DHT22;2352;48.180;11.478;2022-11-20T05:17:47;8.50;95.20
4677;DHT22;2352;48.180;11.478;2022-11-20T05:20:55;8.60;94.80
4677;DHT22;2352;48.180;11.478;2022-11-20T05:23:58;8.60;95.00
4677;DHT22;2352;48.180;11.478;2022-11-20T05:27:01;8.60;94.90
4677;DHT22;2352;48.180;11.478;2022-11-20T05:30:07;8.60;94.90
4677;DHT22;2352;48.180;11.478;2022-11-20T05:33:10;8.60;94.80
4677;DHT22;2352;48.180;11.478;2022-11-20T05:36:14;8.60;94.80
4677;DHT22;2352;48.180;11.478;2022-11-20T05:39:17;8.60;94.80
4677;DHT22;2352;48.180;11.478;2022-11-20T05:42:21;8.60;94.70
4677;DHT22;2352;48.180;11.478;2022-11-20T05:45:34;8.60;94.60
4677;DHT22;2352;48.180;11.478;2022-11-20T05:48:37;8.60;94.70
4677;DHT22;2352;48.180;11.478;2022-11-20T05:51:40;8.50;94.70
4677;DHT22;2352;48.180;11.478;2022-11-20T05:54:43;8.50;94.90
4677;DHT22;2352;48.180;11.478;2022-11-20T05:57:46;8.50;94.90
4677;DHT22;2352;48.180;11.478;2022-11-20T06:00:51;8.50;94.80
4677;DHT22;2352;48.180;11.478;2022-11-20T06:03:54;8.50;94.60
4677;DHT22;2352;48.180;11.478;2022-11-20T06:06:57;8.50;94.70
4677;DHT22;2352;48.180;11.478;2022-11-20T06:10:00;8.50;94.50
4677;DHT22;2352;48.180;11.478;2022-11-20T06:13:03;8.40;94.40
4677;DHT22;2352;48.180;11.478;2022-11-20T06:16:07;8.40;94.60
4677;DHT22;2352;48.180;11.478;2022-11-20T06:19:10;8.40;94.50
4677;DHT22;2352;48.180;11.478;2022-11-20T06:22:13;8.40;94.40
4677;DHT22;2352;48.180;11.478;2022-11-20T06:25:16;8.40;94.20
4677;DHT22;2352;48.180;11.478;2022-11-20T06:28:19;8.30;93.90
4677;DHT22;2352;48.180;11.478;2022-11-20T06:31:24;8.30;94.00
4677;DHT22;2352;48.180;11.478;2022-11-20T06:34:27;8.40;93.70
4677;DHT22;2352;48.180;11.478;2022-11-20T06:37:30;8.40;93.90
4677;DHT22;2352;48.180;11.478;2022-11-20T06:40:33;8.40;93.50
4677;DHT22;2352;48.180;11.478;2022-11-20T06:43:36;8.40;93.60
4677;DHT22;2352;48.180;11.478;2022-11-20T06:46:40;8.30;93.70
4677;DHT22;2352;48.180;11.478;2022-11-20T06:49:43;8.40;93.70
4677;DHT22;2352;48.180;11.478;2022-11-20T06:52:46;8.40;93.20
4677;DHT22;2352;48.180;11.478;2022-11-20T06:55:49;8.20;93.10
4677;DHT22;2352;48.180;11.478;2022-11-20T06:58:52;8.10;93.10
4677;DHT22;2352;48.180;11.478;2022-11-20T07:01:57;8.20;93.30
4677;DHT22;2352;48.180;11.478;2022-11-20T07:05:00;8.20;93.30
4677;DHT22;2352;48.180;11.478;2022-11-20T07:08:03;8.20;92.80
4677;DHT22;2352;48.180;11.478;2022-11-20T07:11:07;8.10;93.00
4677;DHT22;2352;48.180;11.478;2022-11-20T07:14:10;8.10;93.00
4677;DHT22;2352;48.180;11.478;2022-11-20T07:17:14;8.10;92.70
4677;DHT22;2352;48.180;11.478;2022-11-20T07:20:17;8.20;93.30
4677;DHT22;2352;48.180;11.478;2022-11-20T07:23:20;8.20;93.50
4677;DHT22;2352;48.180;11.478;2022-11-20T07:26:23;8.30;93.50
4677;DHT22;2352;48.180;11.478;2022-11-20T07:29:26;8.40;93.10
4677;DHT22;2352;48.180;11.478;2022-11-20T07:32:30;8.30;93.30
4677;DHT22;2352;48.180;11.478;2022-11-20T07:35:33;8.40;93.40
4677;DHT22;2352;48.180;11.478;2022-11-20T07:38:37;8.20;93.50
4677;DHT22;2352;48.180;11.478;2022-11-20T07:41:40;8.30;93.40
4677;DHT22;2352;48.180;11.478;2022-11-20T07:44:43;8.40;93.50
4677;DHT22;2352;48.180;11.478;2022-11-20T07:47:47;8.40;93.60
4677;DHT22;2352;48.180;11.478;2022-11-20T07:50:53;8.40;93.60
4677;DHT22;2352;48.180;11.478;2022-11-20T07:53:56;8.30;93.70
4677;DHT22;2352;48.180;11.478;2022-11-20T07:56:59;8.20;94.00
4677;DHT22;2352;48.180;11.478;2022-11-20T08:00:02;8.20;94.10
4677;DHT22;2352;48.180;11.478;2022-11-20T08:03:07;8.40;93.90
4677;DHT22;2352;48.180;11.478;2022-11-20T08:06:10;8.40;93.90
4677;DHT22;2352;48.180;11.478;2022-11-20T08:09:13;8.40;94.00
4677;DHT22;2352;48.180;11.478;2022-11-20T08:12:18;8.40;93.90
4677;DHT22;2352;48.180;11.478;2022-11-20T08:15:39;8.40;93.90
4677;DHT22;2352;48.180;11.478;2022-11-20T08:18:44;8.40;93.80
4677;DHT22;2352;48.180;11.478;2022-11-20T08:21:47;8.40;93.70
4677;DHT22;2352;48.180;11.478;2022-11-20T08:24:49;8.20;93.70
4677;DHT22;2352;48.180;11.478;2022-11-20T08:27:52;8.20;94.00
4677;DHT22;2352;48.180;11.478;2022-11-20T08:31:01;8.30;94.00
4677;DHT22;2352;48.180;11.478;2022-11-20T08:34:06;8.40;94.00
4677;DHT22;2352;48.180;11.478;2022-11-20T08:37:10;8.40;93.70
4677;DHT22;2352;48.180;11.478;2022-11-20T08:40:13;8.40;93.00
4677;DHT22;2352;48.180;11.478;2022-11-20T08:43:20;8.30;93.30
4677;DHT22;2352;48.180;11.478;2022-11-20T08:46:24;8.20;93.70
4677;DHT22;2352;48.180;11.478;2022-11-20T08:49:29;8.20;93.40
4677;DHT22;2352;48.180;11.478;2022-11-20T08:52:32;8.30;93.20
4677;DHT22;2352;48.180;11.478;2022-11-20T08:55:40;8.30;93.10
4677;DHT22;2352;48.180;11.478;2022-11-20T08:58:43;8.40;93.20
4677;DHT22;2352;48.180;11.478;2022-11-20T09:02:06;8.50;92.60
4677;DHT22;2352;48.180;11.478;2022-11-20T09:05:10;8.50;92.70
4677;DHT22;2352;48.180;11.478;2022-11-20T09:08:13;8.50;92.60
4677;DHT22;2352;48.180;11.478;2022-11-20T09:11:16;8.60;92.70
4677;DHT22;2352;48.180;11.478;2022-11-20T09:14:19;8.60;93.00
4677;DHT22;2352;48.180;11.478;2022-11-20T09:17:22;8.70;92.40
4677;DHT22;2352;48.180;11.478;2022-11-20T09:20:28;8.70;92.40
4677;DHT22;2352;48.180;11.478;2022-11-20T09:23:33;8.70;92.60
4677;DHT22;2352;48.180;11.478;2022-11-20T09:26:36;8.70;92.30
4677;DHT22;2352;48.180;11.478;2022-11-20T09:29:39;8.70;92.00
4677;DHT22;2352;48.180;11.478;2022-11-20T09:32:42;8.60;92.20
4677;DHT22;2352;48.180;11.478;2022-11-20T09:35:46;8.70;92.60
4677;DHT22;2352;48.180;11.478;2022-11-20T09:38:49;8.80;92.40
4677;DHT22;2352;48.180;11.478;2022-11-20T09:42:17;8.90;92.10
4677;DHT22;2352;48.180;11.478;2022-11-20T09:45:28;8.80;92.00
4677;DHT22;2352;48.180;11.478;2022-11-20T09:48:42;8.90;92.00
4677;DHT22;2352;48.180;11.478;2022-11-20T09:51:53;8.90;91.90
4677;DHT22;2352;48.180;11.478;2022-11-20T09:55:01;9.00;91.70
4677;DHT22;2352;48.180;11.478;2022-11-20T09:58:06;9.00;91.90
4677;DHT22;2352;48.180;11.478;2022-11-20T10:01:12;9.10;92.10
4677;DHT22;2352;48.180;11.478;2022-11-20T10:04:19;9.30;91.80
4677;DHT22;2352;48.180;11.478;2022-11-20T10:07:29;9.40;91.10
4677;DHT22;2352;48.180;11.478;2022-11-20T10:10:38;9.30;91.00
4677;DHT22;2352;48.180;11.478;2022-11-20T10:13:51;9.30;90.80
4677;DHT22;2352;48.180;11.478;2022-11-20T10:17:03;9.30;90.80
4677;DHT22;2352;48.180;11.478;2022-11-20T10:20:16;9.30;90.90
4677;DHT22;2352;48.180;11.478;2022-11-20T10:23:32;9.30;90.90
4677;DHT22;2352;48.180;11.478;2022-11-20T10:26:47;9.40;91.10
4677;DHT22;2352;48.180;11.478;2022-11-20T10:30:00;9.40;91.40
4677;DHT22;2352;48.180;11.478;2022-11-20T10:33:06;9.60;91.40
4677;DHT22;2352;48.180;11.478;2022-11-20T10:36:16;9.60;90.70
4677;DHT22;2352;48.180;11.478;2022-11-20T10:39:28;9.40;90.60
4677;DHT22;2352;48.180;11.478;2022-11-20T10:42:39;9.50;90.50
4677;DHT22;2352;48.180;11.478;2022-11-20T10:45:50;9.50;90.10
4677;DHT22;2352;48.180;11.478;2022-11-20T10:48:55;9.40;89.60
4677;DHT22;2352;48.180;11.478;2022-11-20T10:52:05;9.50;90.30
4677;DHT22;2352;48.180;11.478;2022-11-20T10:55:25;9.60;90.70
4677;DHT22;2352;48.180;11.478;2022-11-20T10:58:37;9.70;90.30
4677;DHT22;2352;48.180;11.478;2022-11-20T11:01:43;9.60;90.80
4677;DHT22;2352;48.180;11.478;2022-11-20T11:04:47;9.70;90.50
4677;DHT22;2352;48.180;11.478;2022-11-20T11:07:54;9.80;90.20
4677;DHT22;2352;48.180;11.478;2022-11-20T11:11:02;9.80;90.20
4677;DHT22;2352;48.180;11.478;2022-11-20T11:14:11;9.90;89.30
4677;DHT22;2352;48.180;11.478;2022-11-20T11:17:24;9.80;90.00
4677;DHT22;2352;48.180;11.478;2022-11-20T11:20:28;9.90;90.30
4677;DHT22;2352;48.180;11.478;2022-11-20T11:23:34;9.90;90.20
4677;DHT22;2352;48.180;11.478;2022-11-20T11:26:39;10.10;90.00
4677;DHT22;2352;48.180;11.478;2022-11-20T11:29:42;10.10;88.90
4677;DHT22;2352;48.180;11.478;2022-11-20T11:32:45;10.10;87.80
4677;DHT22;2352;48.180;11.478;2022-11-20T11:35:50;10.20;87.10
4677;DHT22;2352;48.180;11.478;2022-11-20T11:38:54;10.20;87.70
4677;DHT22;2352;48.180;11.478;2022-11-20T11:42:00;10.10;87.90
4677;DHT22;2352;48.180;11.478;2022-11-20T11:45:06;10.00;87.60
4677;DHT22;2352;48.180;11.478;2022-11-20T11:48:09;10.00;87.90
4677;DHT22;2352;48.180;11.478;2022-11-20T11:51:20;9.90;88.60
4677;DHT22;2352;48.180;11.478;2022-11-20T11:54:26;9.80;88.10
4677;DHT22;2352;48.180;11.478;2022-11-20T11:57:43;9.80;88.10
4677;DHT22;2352;48.180;11.478;2022-11-20T12:00:54;9.90;87.90
4677;DHT22;2352;48.180;11.478;2022-11-20T12:04:03;9.90;87.90
4677;DHT22;2352;48.180;11.478;2022-11-20T12:07:11;9.80;90.10
4677;DHT22;2352;48.180;11.478;2022-11-20T12:10:41;9.70;91.50
4677;DHT22;2352;48.180;11.478;2022-11-20T12:13:54;9.60;91.60
4677;DHT22;2352;48.180;11.478;2022-11-20T12:16:58;9.70;92.20
4677;DHT22;2352;48.180;11.478;2022-11-20T12:20:10;9.70;92.00
4677;DHT22;2352;48.180;11.478;2022-11-20T12:23:20;9.60;91.30
4677;DHT22;2352;48.180;11.478;2022-11-20T12:26:36;9.40;91.60
4677;DHT22;2352;48.180;11.478;2022-11-20T12:29:51;9.30;91.90
4677;DHT22;2352;48.180;11.478;2022-11-20T12:33:09;9.30;92.20
4677;DHT22;2352;48.180;11.478;2022-11-20T12:36:22;9.30;92.40
4677;DHT22;2352;48.180;11.478;2022-11-20T12:39:34;9.40;92.00
4677;DHT22;2352;48.180;11.478;2022-11-20T12:42:55;9.50;91.80
4677;DHT22;2352;48.180;11.478;2022-11-20T12:46:26;9.40;91.70
4677;DHT22;2352;48.180;11.478;2022-11-20T12:49:34;9.10;92.70
4677;DHT22;2352;48.180;11.478;2022-11-20T12:52:46;9.20;92.60
4677;DHT22;2352;48.180;11.478;2022-11-20T12:55:55;9.30;92.80
4677;DHT22;2352;48.180;11.478;2022-11-20T12:59:10;9.30;92.70
4677;DHT22;2352;48.180;11.478;2022-11-20T13:02:25;9.30;92.90
4677;DHT22;2352;48.180;11.478;2022-11-20T13:05:37;9.20;93.10
4677;DHT22;2352;48.180;11.478;2022-11-20T13:08:52;9.10;93.30
4677;DHT22;2352;48.180;11.478;2022-11-20T13:12:02;9.10;94.00
4677;DHT22;2352;48.180;11.478;2022-11-20T13:15:14;9.10;93.90
4677;DHT22;2352;48.180;11.478;2022-11-20T13:18:22;9.00;93.80
4677;DHT22;2352;48.180;11.478;2022-11-20T13:21:36;9.00;94.40
4677;DHT22;2352;48.180;11.478;2022-11-20T13:24:50;9.00;94.20
4677;DHT22;2352;48.180;11.478;2022-11-20T13:27:54;9.00;94.00
4677;DHT22;2352;48.180;11.478;2022-11-20T13:30:58;9.20;94.50
4677;DHT22;2352;48.180;11.478;2022-11-20T13:34:05;9.20;94.30
4677;DHT22;2352;48.180;11.478;2022-11-20T13:37:25;9.20;94.30
4677;DHT22;2352;48.180;11.478;2022-11-20T13:40:29;9.30;94.30
4677;DHT22;2352;48.180;11.478;2022-11-20T13:43:36;9.30;94.00
4677;DHT22;2352;48.180;11.478;2022-11-20T13:46:41;9.10;94.30
4677;DHT22;2352;48.180;11.478;2022-11-20T13:49:48;9.00;94.70
4677;DHT22;2352;48.180;11.478;2022-11-20T13:52:58;9.10;94.70
4677;DHT22;2352;48.180;11.478;2022-11-20T13:56:10;9.10;94.60
4677;DHT22;2352;48.180;11.478;2022-11-20T14:03:01;9.30;94.00
4677;DHT22;2352;48.180;11.478;2022-11-20T14:06:12;9.30;94.20
4677;DHT22;2352;48.180;11.478;2022-11-20T14:09:26;9.30;94.10
4677;DHT22;2352;48.180;11.478;2022-11-20T14:12:33;9.40;94.00
4677;DHT22;2352;48.180;11.478;2022-11-20T14:15:40;9.50;94.00
4677;DHT22;2352;48.180;11.478;2022-11-20T14:18:46;9.40;93.90
4677;DHT22;2352;48.180;11.478;2022-11-20T14:21:52;9.40;93.70
4677;DHT22;2352;48.180;11.478;2022-11-20T14:25:17;9.40;93.70
4677;DHT22;2352;48.180;11.478;2022-11-20T14:28:25;9.50;93.50
4677;DHT22;2352;48.180;11.478;2022-11-20T14:31:29;9.50;93.30
4677;DHT22;2352;48.180;11.478;2022-11-20T14:34:41;9.40;93.30
4677;DHT22;2352;48.180;11.478;2022-11-20T14:37:47;9.40;93.40
4677;DHT22;2352;48.180;11.478;2022-11-20T14:40:50;9.40;93.10
4677;DHT22;2352;48.180;11.478;2022-11-20T14:43:56;9.10;93.20
4677;DHT22;2352;48.180;11.478;2022-11-20T14:47:00;9.10;93.30
4677;DHT22;2352;48.180;11.478;2022-11-20T14:50:12;9.10;93.10
4677;DHT22;2352;48.180;11.478;2022-11-20T14:53:23;9.00;93.20
4677;DHT22;2352;48.180;11.478;2022-11-20T14:56:27;8.90;93.30
4677;DHT22;2352;48.180;11.478;2022-11-20T14:59:31;9.00;93.40
4677;DHT22;2352;48.180;11.478;2022-11-20T15:02:38;9.00;93.10
4677;DHT22;2352;48.180;11.478;2022-11-20T15:05:46;9.10;93.00
4677;DHT22;2352;48.180;11.478;2022-11-20T15:08:52;9.10;92.90
4677;DHT22;2352;48.180;11.478;2022-11-20T15:11:56;9.00;93.20
4677;DHT22;2352;48.180;11.478;2022-11-20T15:15:00;9.00;93.10
4677;DHT22;2352;48.180;11.478;2022-11-20T15:18:04;9.00;92.80
4677;DHT22;2352;48.180;11.478;2022-11-20T15:21:11;9.20;92.40
4677;DHT22;2352;48.180;11.478;2022-11-20T15:24:16;9.10;92.70
4677;DHT22;2352;48.180;11.478;2022-11-20T15:27:19;9.20;92.50
4677;DHT22;2352;48.180;11.478;2022-11-20T15:30:22;9.20;92.50
4677;DHT22;2352;48.180;11.478;2022-11-20T15:33:25;9.20;92.40
4677;DHT22;2352;48.180;11.478;2022-11-20T15:36:28;9.10;92.70
4677;DHT22;2352;48.180;11.478;2022-11-20T15:39:33;9.00;92.60
4677;DHT22;2352;48.180;11.478;2022-11-20T15:42:35;9.20;92.60
4677;DHT22;2352;48.180;11.478;2022-11-20T15:45:40;9.10;92.70
4677;DHT22;2352;48.180;11.478;2022-11-20T15:48:45;9.20;92.70
4677;DHT22;2352;48.180;11.478;2022-11-20T15:51:50;9.20;92.60
4677;DHT22;2352;48.180;11.478;2022-11-20T15:54:55;9.20;92.90
4677;DHT22;2352;48.180;11.478;2022-11-20T15:57:58;9.30;93.00
4677;DHT22;2352;48.180;11.478;2022-11-20T16:01:01;9.30;93.10
4677;DHT22;2352;48.180;11.478;2022-11-20T16:04:07;9.30;93.10
4677;DHT22;2352;48.180;11.478;2022-11-20T16:07:11;9.30;93.20
4677;DHT22;2352;48.180;11.478;2022-11-20T16:10:16;9.30;93.20
4677;DHT22;2352;48.180;11.478;2022-11-20T16:13:20;9.30;93.20
4677;DHT22;2352;48.180;11.478;2022-11-20T16:16:40;9.30;93.10
4677;DHT22;2352;48.180;11.478;2022-11-20T16:19:45;9.30;93.20
4677;DHT22;2352;48.180;11.478;2022-11-20T16:22:49;9.30;93.30
4677;DHT22;2352;48.180;11.478;2022-11-20T16:25:53;9.30;93.30
4677;DHT22;2352;48.180;11.478;2022-11-20T16:28:58;9.30;93.10
4677;DHT22;2352;48.180;11.478;2022-11-20T16:32:02;9.30;93.10
4677;DHT22;2352;48.180;11.478;2022-11-20T16:35:05;9.30;93.10
4677;DHT22;2352;48.180;11.478;2022-11-20T16:38:09;9.30;93.00
4677;DHT22;2352;48.180;11.478;2022-11-20T16:41:13;9.40;93.00
4677;DHT22;2352;48.180;11.478;2022-11-20T16:44:16;9.40;92.90
4677;DHT22;2352;48.180;11.478;2022-11-20T16:47:19;9.40;92.70
4677;DHT22;2352;48.180;11.478;2022-11-20T16:50:22;9.30;92.60
4677;DHT22;2352;48.180;11.478;2022-11-20T16:53:25;9.30;92.70
4677;DHT22;2352;48.180;11.478;2022-11-20T16:56:29;9.30;92.70
4677;DHT22;2352;48.180;11.478;2022-11-20T16:59:32;9.30;92.60
4677;DHT22;2352;48.180;11.478;2022-11-20T17:02:35;9.30;92.40
4677;DHT22;2352;48.180;11.478;2022-11-20T17:05:38;9.20;92.60
4677;DHT22;2352;48.180;11.478;2022-11-20T17:08:42;9.10;92.80
4677;DHT22;2352;48.180;11.478;2022-11-20T17:11:47;9.10;92.50
4677;DHT22;2352;48.180;11.478;2022-11-20T17:14:50;9.00;92.60
4677;DHT22;2352;48.180;11.478;2022-11-20T17:17:53;9.00;92.50
4677;DHT22;2352;48.180;11.478;2022-11-20T17:20:57;8.90;92.60
4677;DHT22;2352;48.180;11.478;2022-11-20T17:24:02;8.90;92.80
4677;DHT22;2352;48.180;11.478;2022-11-20T17:27:06;8.90;92.80
4677;DHT22;2352;48.180;11.478;2022-11-20T17:30:10;8.90;92.60
4677;DHT22;2352;48.180;11.478;2022-11-20T17:33:13;8.90;92.40
4677;DHT22;2352;48.180;11.478;2022-11-20T17:36:17;8.90;92.40
4677;DHT22;2352;48.180;11.478;2022-11-20T17:39:21;8.80;92.40
4677;DHT22;2352;48.180;11.478;2022-11-20T17:42:25;8.80;92.40
4677;DHT22;2352;48.180;11.478;2022-11-20T17:45:30;8.80;92.40
4677;DHT22;2352;48.180;11.478;2022-11-20T17:48:33;8.80;92.40
4677;DHT22;2352;48.180;11.478;2022-11-20T17:51:36;8.90;92.10
4677;DHT22;2352;48.180;11.478;2022-11-20T17:54:39;8.80;92.20
4677;DHT22;2352;48.180;11.478;2022-11-20T17:57:43;8.70;92.40
4677;DHT22;2352;48.180;11.478;2022-11-20T18:01:03;8.50;92.60
4677;DHT22;2352;48.180;11.478;2022-11-20T18:04:07;8.60;92.80
4677;DHT22;2352;48.180;11.478;2022-11-20T18:07:11;8.60;92.70
4677;DHT22;2352;48.180;11.478;2022-11-20T18:10:14;8.60;92.50
4677;DHT22;2352;48.180;11.478;2022-11-20T18:13:18;8.50;92.70
4677;DHT22;2352;48.180;11.478;2022-11-20T18:16:49;8.60;92.70
4677;DHT22;2352;48.180;11.478;2022-11-20T18:19:53;8.50;92.60
4677;DHT22;2352;48.180;11.478;2022-11-20T18:23:16;8.50;92.80
4677;DHT22;2352;48.180;11.478;2022-11-20T18:26:19;8.50;93.00
4677;DHT22;2352;48.180;11.478;2022-11-20T18:29:23;8.50;93.00
4677;DHT22;2352;48.180;11.478;2022-11-20T18:32:27;8.50;93.20
4677;DHT22;2352;48.180;11.478;2022-11-20T18:35:30;8.50;93.20
4677;DHT22;2352;48.180;11.478;2022-11-20T18:38:33;8.50;93.10
4677;DHT22;2352;48.180;11.478;2022-11-20T18:41:36;8.40;93.30
4677;DHT22;2352;48.180;11.478;2022-11-20T18:44:58;8.40;93.20
4677;DHT22;2352;48.180;11.478;2022-11-20T18:48:02;8.40;93.10
4677;DHT22;2352;48.180;11.478;2022-11-20T18:51:05;8.40;93.20
4677;DHT22;2352;48.180;11.478;2022-11-20T18:54:08;8.50;92.80
4677;DHT22;2352;48.180;11.478;2022-11-20T18:57:11;8.50;92.70
4677;DHT22;2352;48.180;11.478;2022-11-20T19:00:18;8.50;92.60
4677;DHT22;2352;48.180;11.478;2022-11-20T19:03:20;8.50;92.70
4677;DHT22;2352;48.180;11.478;2022-11-20T19:06:24;8.50;92.70
4677;DHT22;2352;48.180;11.478;2022-11-20T19:09:27;8.40;92.80
4677;DHT22;2352;48.180;11.478;2022-11-20T19:12:31;8.50;92.70
4677;DHT22;2352;48.180;11.478;2022-11-20T19:15:35;8.50;92.60
4677;DHT22;2352;48.180;11.478;2022-11-20T19:18:38;8.40;92.80
4677;DHT22;2352;48.180;11.478;2022-11-20T19:21:41;8.40;92.70
4677;DHT22;2352;48.180;11.478;2022-11-20T19:24:44;8.50;92.60
4677;DHT22;2352;48.180;11.478;2022-11-20T19:27:47;8.40;92.80
4677;DHT22;2352;48.180;11.478;2022-11-20T19:30:52;8.20;93.00
4677;DHT22;2352;48.180;11.478;2022-11-20T19:33:57;8.10;93.50
4677;DHT22;2352;48.180;11.478;2022-11-20T19:37:00;8.10;93.50
4677;DHT22;2352;48.180;11.478;2022-11-20T19:40:03;8.10;93.70
4677;DHT22;2352;48.180;11.478;2022-11-20T19:43:06;8.10;93.70
4677;DHT22;2352;48.180;11.478;2022-11-20T19:46:11;8.10;93.80
4677;DHT22;2352;48.180;11.478;2022-11-20T19:49:14;8.10;93.80
4677;DHT22;2352;48.180;11.478;2022-11-20T19:52:17;8.10;94.00
4677;DHT22;2352;48.180;11.478;2022-11-20T19:55:19;8.10;93.80
4677;DHT22;2352;48.180;11.478;2022-11-20T19:58:22;8.10;93.90
4677;DHT22;2352;48.180;11.478;2022-11-20T20:01:29;8.20;93.80
4677;DHT22;2352;48.180;11.478;2022-11-20T20:04:32;8.20;93.80
4677;DHT22;2352;48.180;11.478;2022-11-20T20:07:35;8.30;93.70
4677;DHT22;2352;48.180;11.478;2022-11-20T20:10:40;8.30;93.80
4677;DHT22;2352;48.180;11.478;2022-11-20T20:13:44;8.20;93.50
4677;DHT22;2352;48.180;11.478;2022-11-20T20:16:48;8.30;93.60